Terminal Aerodrome Forecast
Issued by NWS Grand Forks, ND

Home | Current Version | Previous Version | Graphics & Text | Print | Product List | Glossary On
Versions: 1 2 3 4 5 6 7 8 9 10 11 12 13 14 15 16 17 18 19
000
FTUS43 KFGF 221133
TAFFAR
TAF
KFAR 221133Z 2212/2312 36007KT 2SM BR OVC003
      TEMPO 2212/2214 1/2SM FG
     FM221400 36011KT P6SM -RA OVC003
      TEMPO 2214/2215 3SM BR
     FM221900 36013G20KT P6SM -RA OVC003
     FM230000 36014KT P6SM OVC010=

USA.gov is the U.S. government's official web portal to all federal, state and local government web resources and services.